createdAt,value
2023-04-11T00:01:08.152Z,4.07
2023-04-11T00:05:08.632Z,4.29
2023-04-11T00:09:08.326Z,4.11
2023-04-11T00:13:08.811Z,4.63
2023-04-11T00:17:08.836Z,4.86
2023-04-11T00:21:08.413Z,4.93
2023-04-11T00:25:08.359Z,5.55
2023-04-11T00:29:08.804Z,4.55
2023-04-11T00:33:08.315Z,4.83
2023-04-11T00:37:08.293Z,4.80
2023-04-11T00:41:08.213Z,4.68
2023-04-11T00:45:08.353Z,4.50
2023-04-11T00:49:08.258Z,4.60
2023-04-11T00:53:08.304Z,4.98
2023-04-11T00:57:08.211Z,4.68
2023-04-11T01:01:08.235Z,5.19
2023-04-11T01:05:08.333Z,5.17
2023-04-11T01:09:08.121Z,4.11
2023-04-11T01:13:08.280Z,4.99
2023-04-11T01:17:08.246Z,5.64
2023-04-11T01:21:08.020Z,5.37
2023-04-11T01:25:08.402Z,4.97
2023-04-11T01:29:07.956Z,5.23
2023-04-11T01:33:07.927Z,6.47
2023-04-11T01:37:08.340Z,6.15
2023-04-11T01:41:07.818Z,7.34
2023-04-11T01:45:07.843Z,7.36
2023-04-11T01:49:08.407Z,7.65
2023-04-11T01:53:07.898Z,6.65
2023-04-11T01:57:07.872Z,7.38
2023-04-11T02:01:08.366Z,6.10
2023-04-11T02:05:08.438Z,7.68
2023-04-11T02:09:08.435Z,6.69
2023-04-11T02:13:07.945Z,5.01
2023-04-11T02:17:07.999Z,4.94
2023-04-11T02:21:08.053Z,4.24
2023-04-11T02:25:08.383Z,4.56
2023-04-11T02:29:08.365Z,4.82
2023-04-11T02:33:08.191Z,4.90
2023-04-11T02:37:08.183Z,4.93
2023-04-11T02:41:08.207Z,4.92
2023-04-11T02:45:08.383Z,5.37
2023-04-11T02:49:08.374Z,5.58
2023-04-11T02:53:08.838Z,6.75
2023-04-11T02:57:08.472Z,6.99
2023-04-11T03:01:08.504Z,6.93
2023-04-11T03:05:08.878Z,7.22
2023-04-11T03:09:08.833Z,7.40
2023-04-11T03:13:08.773Z,7.14
2023-04-11T03:17:08.814Z,7.45
2023-04-11T03:21:08.923Z,5.82
2023-04-11T03:25:08.888Z,6.34
2023-04-11T03:29:08.879Z,6.03
2023-04-11T03:33:08.883Z,6.80
2023-04-11T03:37:08.828Z,6.21
2023-04-11T03:41:08.874Z,5.92
2023-04-11T03:45:09.354Z,6.65
2023-04-11T03:49:08.988Z,6.20
2023-04-11T03:53:09.350Z,5.77
2023-04-11T03:57:09.047Z,5.77
2023-04-11T04:01:09.387Z,5.88
2023-04-11T04:05:09.150Z,5.51
2023-04-11T04:09:09.378Z,5.70
2023-04-11T04:13:09.193Z,5.92
2023-04-11T04:17:09.369Z,5.93
2023-04-11T04:21:09.334Z,5.68
2023-04-11T04:25:09.884Z,6.98
2023-04-11T04:29:09.546Z,6.16
2023-04-11T04:33:09.598Z,5.21
2023-04-11T04:37:09.892Z,5.57
2023-04-11T04:41:09.886Z,5.11
2023-04-11T04:45:10.380Z,5.70
2023-04-11T04:49:09.998Z,5.46
2023-04-11T04:53:10.130Z,5.88
2023-04-11T04:57:10.381Z,6.37
2023-04-11T05:01:10.470Z,6.23
2023-04-11T05:05:10.866Z,7.31
2023-04-11T05:09:10.676Z,7.69
2023-04-11T05:13:10.758Z,6.33
2023-04-11T05:17:10.910Z,6.19
2023-04-11T05:21:11.377Z,6.01
2023-04-11T05:25:11.443Z,6.30
2023-04-11T05:29:11.116Z,6.59
2023-04-11T05:33:11.436Z,7.65
2023-04-11T05:37:11.334Z,7.30
2023-04-11T05:41:11.390Z,6.96
2023-04-11T05:45:11.582Z,7.24
2023-04-11T05:49:11.340Z,6.73
2023-04-11T05:53:11.381Z,6.24
2023-04-11T05:57:11.899Z,5.87
2023-04-11T06:01:11.962Z,6.20
2023-04-11T06:05:12.175Z,6.15
2023-04-11T06:09:11.682Z,5.55
2023-04-11T06:13:11.725Z,6.76
2023-04-11T06:17:11.723Z,6.34
2023-04-11T06:21:11.908Z,6.91
2023-04-11T06:25:11.678Z,6.13
2023-04-11T06:29:11.840Z,7.22
2023-04-11T06:33:11.969Z,6.63
2023-04-11T06:37:12.479Z,8.20
2023-04-11T06:41:12.046Z,8.30
2023-04-11T06:45:12.486Z,8.68
2023-04-11T06:49:12.101Z,7.45
2023-04-11T06:53:12.104Z,8.09
2023-04-11T06:57:12.448Z,8.44
2023-04-11T07:01:12.054Z,8.30
2023-04-11T07:05:12.005Z,7.53
2023-04-11T07:09:12.030Z,8.62
2023-04-11T07:13:12.005Z,8.05
2023-04-11T07:17:12.002Z,8.45
2023-04-11T07:21:12.567Z,7.56
2023-04-11T07:25:12.045Z,7.10
2023-04-11T07:29:14.410Z,6.78
2023-04-11T07:33:12.132Z,6.58
2023-04-11T07:37:12.420Z,6.43
2023-04-11T07:41:12.418Z,6.22
2023-04-11T07:45:12.104Z,7.46
2023-04-11T07:49:11.939Z,6.70
2023-04-11T07:53:11.882Z,7.50
2023-04-11T07:57:12.033Z,7.48
2023-04-11T08:01:12.016Z,7.85
2023-04-11T08:05:11.863Z,6.76
2023-04-11T08:09:12.001Z,8.06
2023-04-11T08:13:11.800Z,7.15
2023-04-11T08:17:21.065Z,8.13
2023-04-11T08:21:12.973Z,7.43
2023-04-11T08:25:11.600Z,7.77
2023-04-11T08:29:11.607Z,6.31
2023-04-11T08:33:11.937Z,7.01
2023-04-11T08:37:11.592Z,7.21
2023-04-11T08:41:11.971Z,6.63
2023-04-11T08:45:11.597Z,7.09
2023-04-11T08:49:11.977Z,7.68
2023-04-11T08:53:11.693Z,7.22
2023-04-11T08:57:11.976Z,8.52
2023-04-11T09:01:11.845Z,8.38
2023-04-11T09:05:11.983Z,8.94
2023-04-11T09:09:12.108Z,9.45
2023-04-11T09:13:12.540Z,8.72
2023-04-11T09:17:12.345Z,8.23
2023-04-11T09:21:12.992Z,9.27
2023-04-11T09:25:12.671Z,8.24
2023-04-11T09:29:12.697Z,8.25
2023-04-11T09:33:12.971Z,9.19
2023-04-11T09:37:12.719Z,9.53
2023-04-11T09:41:12.748Z,7.42
2023-04-11T09:45:12.853Z,7.76
2023-04-11T09:49:12.948Z,8.56
2023-04-11T09:53:12.933Z,9.08
2023-04-11T09:57:13.047Z,8.48
2023-04-11T10:01:12.735Z,8.75
2023-04-11T10:05:12.880Z,8.96
2023-04-11T10:09:13.082Z,8.05
2023-04-11T10:13:12.785Z,9.18
2023-04-11T10:17:12.971Z,7.51
2023-04-11T10:21:12.910Z,7.85
2023-04-11T10:25:12.968Z,8.54
2023-04-11T10:29:13.463Z,9.44
2023-04-11T10:33:12.996Z,9.95
2023-04-11T10:37:12.984Z,8.64
2023-04-11T10:41:13.123Z,7.59
2023-04-11T10:45:13.511Z,10.10
2023-04-11T10:49:13.515Z,7.29
2023-04-11T10:53:13.501Z,7.15
2023-04-11T10:57:13.083Z,7.93
2023-04-11T11:01:21.346Z,4.32
2023-04-11T11:05:13.992Z,4.58
2023-04-11T11:09:12.967Z,3.55
2023-04-11T11:13:12.889Z,3.15
2023-04-11T11:17:13.089Z,2.93
2023-04-11T11:21:17.106Z,3.02
2023-04-11T11:25:14.503Z,2.97
2023-04-11T11:29:13.245Z,1.82
2023-04-11T11:33:13.595Z,1.97
2023-04-11T11:37:13.268Z,1.98
2023-04-11T11:41:13.442Z,2.06
2023-04-11T11:45:13.975Z,1.69
2023-04-11T11:49:14.044Z,2.27
2023-04-11T11:53:13.813Z,1.81
2023-04-11T11:57:13.848Z,2.20
2023-04-11T12:05:14.086Z,2.00
2023-04-11T12:09:14.280Z,2.08
2023-04-11T12:13:14.578Z,1.74
2023-04-11T12:17:14.318Z,1.83
2023-04-11T12:21:14.513Z,2.13
2023-04-11T12:25:14.512Z,1.32
2023-04-11T12:29:14.432Z,1.47
2023-04-11T12:33:14.559Z,1.15
2023-04-11T12:37:14.526Z,2.28
2023-04-11T12:44:22.842Z,3.39
2023-04-11T12:45:15.756Z,3.26
2023-04-11T12:49:14.999Z,2.33
2023-04-11T12:53:14.921Z,1.62
2023-04-11T12:57:15.119Z,1.43
2023-04-11T13:01:25.153Z,1.39
2023-04-11T13:05:15.323Z,1.33
2023-04-11T13:09:15.029Z,1.28
2023-04-11T13:13:18.628Z,0.98
2023-04-11T13:17:15.063Z,0.64
2023-04-11T13:21:14.872Z,0.86
2023-04-11T13:25:14.763Z,0.97
2023-04-11T13:29:15.020Z,0.74
2023-04-11T13:33:14.713Z,0.90
2023-04-11T13:37:15.100Z,0.68
2023-04-11T13:41:14.969Z,0.58
2023-04-11T13:45:15.088Z,1.04
2023-04-11T13:49:14.596Z,0.66
2023-04-11T13:53:14.534Z,1.09
2023-04-11T13:57:14.560Z,0.98
2023-04-11T14:01:14.550Z,1.59
2023-04-11T14:05:14.718Z,1.12
2023-04-11T14:09:15.087Z,1.28
2023-04-11T14:13:14.853Z,1.10
2023-04-11T14:17:15.097Z,1.65
2023-04-11T14:21:14.799Z,0.88
2023-04-11T14:25:14.789Z,1.30
2023-04-11T14:29:14.753Z,1.66
2023-04-11T14:33:14.692Z,0.91
2023-04-11T14:37:14.689Z,1.24
2023-04-11T14:41:15.102Z,0.64
2023-04-11T14:45:14.631Z,1.05
2023-04-11T14:49:14.582Z,1.50
2023-04-11T14:53:14.609Z,0.96
2023-04-11T14:57:14.610Z,1.13
2023-04-11T15:01:14.596Z,1.35
2023-04-11T15:05:14.582Z,0.86
2023-04-11T15:09:14.376Z,0.85
2023-04-11T15:13:14.601Z,0.71
2023-04-11T15:17:15.083Z,0.92
2023-04-11T15:21:15.081Z,0.94
2023-04-11T15:25:14.949Z,1.02
2023-04-11T15:29:15.112Z,0.98
2023-04-11T15:33:15.384Z,0.83
2023-04-11T15:37:15.587Z,0.96
2023-04-11T15:41:15.532Z,1.06
2023-04-11T15:45:15.474Z,1.10
2023-04-11T15:49:15.456Z,1.06
2023-04-11T15:53:15.379Z,1.03
2023-04-11T15:57:15.606Z,0.82
2023-04-11T16:01:15.299Z,1.46
2023-04-11T16:05:15.482Z,1.13
2023-04-11T16:09:15.660Z,1.02
2023-04-11T16:13:15.220Z,1.52
2023-04-11T16:17:15.173Z,1.02
2023-04-11T16:21:15.230Z,1.16
2023-04-11T16:25:15.131Z,1.04
2023-04-11T16:29:15.134Z,1.18
2023-04-11T16:33:15.099Z,1.05
2023-04-11T16:37:15.005Z,1.08
2023-04-11T16:41:15.397Z,0.76
2023-04-11T16:45:14.961Z,1.13
2023-04-11T16:49:14.964Z,1.63
2023-04-11T16:53:14.889Z,1.88
2023-04-11T16:57:14.888Z,1.78
2023-04-11T17:01:14.996Z,1.29
2023-04-11T17:05:15.056Z,1.49
2023-04-11T17:09:15.086Z,2.41
2023-04-11T17:13:15.218Z,1.81
2023-04-11T17:17:15.234Z,1.20
2023-04-11T17:21:15.307Z,1.70
2023-04-11T17:25:15.509Z,1.78
2023-04-11T17:29:15.579Z,1.44
2023-04-11T17:33:15.786Z,1.46
2023-04-11T17:37:15.749Z,1.85
2023-04-11T17:41:15.923Z,2.09
2023-04-11T17:45:17.636Z,2.12
2023-04-11T17:49:15.687Z,3.70
2023-04-11T17:53:15.746Z,4.38
2023-04-11T17:57:16.441Z,4.62
2023-04-11T18:01:15.641Z,4.17
2023-04-11T18:05:22.968Z,9.20
2023-04-11T18:09:16.778Z,8.01
2023-04-11T18:13:15.733Z,5.86
2023-04-11T18:17:15.630Z,10.19
2023-04-11T18:21:15.605Z,5.56
2023-04-11T18:25:15.636Z,10.61
2023-04-11T18:29:15.564Z,5.34
2023-04-11T18:33:15.549Z,4.71
2023-04-11T18:37:15.568Z,3.04
2023-04-11T18:41:15.649Z,2.65
2023-04-11T18:45:15.773Z,3.21
2023-04-11T18:49:17.836Z,3.27
2023-04-11T18:53:16.691Z,2.80
2023-04-11T18:57:16.235Z,3.03
2023-04-11T19:01:17.520Z,2.79
2023-04-11T19:05:17.391Z,2.99
2023-04-11T19:09:16.648Z,2.73
2023-04-11T19:13:16.962Z,2.91
2023-04-11T19:17:17.201Z,3.63
2023-04-11T19:21:17.309Z,3.44
2023-04-11T19:25:17.496Z,3.71
2023-04-11T19:29:17.692Z,2.90
2023-04-11T19:33:17.945Z,3.08
2023-04-11T19:37:17.912Z,2.56
2023-04-11T19:41:17.843Z,3.17
2023-04-11T19:45:17.805Z,3.03
2023-04-11T19:49:17.760Z,3.96
2023-04-11T19:53:17.795Z,4.58
2023-04-11T19:57:17.713Z,4.36
2023-04-11T20:01:17.691Z,2.81
2023-04-11T20:05:17.604Z,3.36
2023-04-11T20:09:17.571Z,3.92
2023-04-11T20:13:17.644Z,3.12
2023-04-11T20:17:17.502Z,3.34
2023-04-11T20:21:17.483Z,3.05
2023-04-11T20:25:17.473Z,3.33
2023-04-11T20:29:17.479Z,2.48
2023-04-11T20:33:17.479Z,3.14
2023-04-11T20:37:18.886Z,2.66
2023-04-11T20:41:17.589Z,2.46
2023-04-11T20:45:17.660Z,2.48
2023-04-11T20:49:17.826Z,2.49
2023-04-11T20:53:17.928Z,2.60
2023-04-11T20:57:17.966Z,2.21
2023-04-11T21:01:18.109Z,2.08
2023-04-11T21:05:18.180Z,1.99
2023-04-11T21:09:18.362Z,2.77
2023-04-11T21:13:18.472Z,2.43
2023-04-11T21:17:18.594Z,2.84
2023-04-11T21:21:18.748Z,3.06
2023-04-11T21:25:18.859Z,2.43
2023-04-11T21:29:18.924Z,2.54
2023-04-11T21:33:19.052Z,2.76
2023-04-11T21:37:19.246Z,3.60
2023-04-11T21:41:19.345Z,3.78
2023-04-11T21:45:19.445Z,3.27
2023-04-11T21:49:19.550Z,2.90
2023-04-11T21:53:19.734Z,2.86
2023-04-11T21:57:19.841Z,3.28
2023-04-11T22:01:19.983Z,3.10
2023-04-11T22:05:20.882Z,3.76
2023-04-11T22:09:20.315Z,3.98
2023-04-11T22:13:20.513Z,3.42
2023-04-11T22:17:20.802Z,4.02
2023-04-11T22:21:20.943Z,3.67
2023-04-11T22:25:21.044Z,3.88
2023-04-11T22:29:21.330Z,3.41
2023-04-11T22:33:21.469Z,3.51
2023-04-11T22:37:21.585Z,3.24
2023-04-11T22:41:21.746Z,3.30
2023-04-11T22:45:21.898Z,4.32
2023-04-11T22:49:21.964Z,4.00
2023-04-11T22:53:22.162Z,3.23
2023-04-11T22:57:22.396Z,3.34
2023-04-11T23:01:22.608Z,3.35
2023-04-11T23:05:22.800Z,3.46
2023-04-11T23:09:22.742Z,4.26
2023-04-11T23:13:22.741Z,4.44
2023-04-11T23:17:22.671Z,4.13
2023-04-11T23:21:22.594Z,4.80
2023-04-11T23:25:22.661Z,5.06
2023-04-11T23:29:22.643Z,4.53
2023-04-11T23:33:22.517Z,4.99
2023-04-11T23:37:22.463Z,6.00
2023-04-11T23:41:22.430Z,6.92
2023-04-11T23:45:22.428Z,6.42
2023-04-11T23:49:22.422Z,5.62
2023-04-11T23:53:22.553Z,5.58
2023-04-11T23:57:22.756Z,5.72
